Minneapolis, Minnesota
Current Conditions -  °F | °C
As of 3:53 PM on Friday 24 Oct 2014 (Local Time) from KMSP Reporting Station
Broken Clouds Broken Clouds  
Wind Chill: 66°   Ceiling: 25000
Heat Index: 66°   Visibility: 7mi
Dew Point: 54°   Wind: 6mph
Humidity: 65%   Direction: 240°WSW
Pressure: 29.83"   Gusts: NA
Location:  44.98°N, 93.26°W
Report Text: KMSP 242053Z 24005KT 7SM BKN250 19/12 A2983 RMK AO2 SLP103 T01890122 55009
Loading
Personal Weather Stations






























Interactive Weather Map
Tropical Storm Tracking
New forecast layout! Learn more

10-Day Weather Forecast

Advertisements
Track Severe Weather on mobile